sensor_id;sensor_type;location;lat;lon;timestamp;pressure;altitude;pressure_sealevel;temperature;humidity
78800;BME280;68148;55.328;86.106;2023-06-24T00:01:33;98979.06;;;16.76;50.80
78800;BME280;68148;55.328;86.106;2023-06-24T00:04:00;98977.84;;;16.67;51.65
78800;BME280;68148;55.328;86.106;2023-06-24T00:06:26;98973.75;;;16.43;52.19
78800;BME280;68148;55.328;86.106;2023-06-24T00:08:52;98966.56;;;16.43;51.35
78800;BME280;68148;55.328;86.106;2023-06-24T00:11:19;98964.28;;;16.18;51.28
78800;BME280;68148;55.328;86.106;2023-06-24T00:13:45;98962.19;;;16.03;51.62
78800;BME280;68148;55.328;86.106;2023-06-24T00:16:30;98967.75;;;15.85;52.02
78800;BME280;68148;55.328;86.106;2023-06-24T00:18:56;98966.06;;;15.96;51.56
78800;BME280;68148;55.328;86.106;2023-06-24T00:21:22;98977.47;;;15.80;51.35
78800;BME280;68148;55.328;86.106;2023-06-24T00:23:48;98970.31;;;15.40;52.03
78800;BME280;68148;55.328;86.106;2023-06-24T00:26:13;98976.34;;;14.71;53.58
78800;BME280;68148;55.328;86.106;2023-06-24T00:28:39;98983.53;;;14.17;55.03
78800;BME280;68148;55.328;86.106;2023-06-24T00:31:05;98993.84;;;13.84;56.22
78800;BME280;68148;55.328;86.106;2023-06-24T00:33:33;98991.47;;;13.45;58.24
78800;BME280;68148;55.328;86.106;2023-06-24T00:36:02;98984.22;;;13.52;57.66
78800;BME280;68148;55.328;86.106;2023-06-24T00:38:27;98974.13;;;13.61;56.97
78800;BME280;68148;55.328;86.106;2023-06-24T00:40:53;98975.06;;;13.37;58.41
78800;BME280;68148;55.328;86.106;2023-06-24T00:43:19;98992.59;;;13.38;59.00
78800;BME280;68148;55.328;86.106;2023-06-24T00:45:45;98977.69;;;13.55;58.45
78800;BME280;68148;55.328;86.106;2023-06-24T00:48:11;98978.41;;;13.62;57.41
78800;BME280;68148;55.328;86.106;2023-06-24T00:50:38;98979.84;;;13.76;57.74
78800;BME280;68148;55.328;86.106;2023-06-24T00:53:03;98981.75;;;13.88;57.42
78800;BME280;68148;55.328;86.106;2023-06-24T00:55:29;98980.06;;;14.05;57.09
78800;BME280;68148;55.328;86.106;2023-06-24T00:57:58;98973.06;;;14.22;56.38
78800;BME280;68148;55.328;86.106;2023-06-24T01:00:24;98974.78;;;14.28;56.01
78800;BME280;68148;55.328;86.106;2023-06-24T01:02:50;98969.94;;;14.37;55.67
78800;BME280;68148;55.328;86.106;2023-06-24T01:05:16;98966.00;;;14.28;55.68
78800;BME280;68148;55.328;86.106;2023-06-24T01:07:43;98961.28;;;14.30;55.87
78800;BME280;68148;55.328;86.106;2023-06-24T01:10:10;98958.16;;;14.21;55.85
78800;BME280;68148;55.328;86.106;2023-06-24T01:12:39;98964.63;;;14.25;55.46
78800;BME280;68148;55.328;86.106;2023-06-24T01:15:07;98955.31;;;14.35;55.39
78800;BME280;68148;55.328;86.106;2023-06-24T01:18:02;98962.56;;;14.39;55.46
78800;BME280;68148;55.328;86.106;2023-06-24T01:31:39;98965.84;;;13.99;56.18
78800;BME280;68148;55.328;86.106;2023-06-24T01:36:38;98964.81;;;14.12;56.39
78800;BME280;68148;55.328;86.106;2023-06-24T01:39:08;98967.41;;;14.31;55.68
78800;BME280;68148;55.328;86.106;2023-06-24T01:41:44;98958.41;;;14.32;55.39
78800;BME280;68148;55.328;86.106;2023-06-24T01:44:14;98964.19;;;14.64;55.24
78800;BME280;68148;55.328;86.106;2023-06-24T01:46:42;98963.28;;;14.70;54.84
78800;BME280;68148;55.328;86.106;2023-06-24T01:49:13;98963.25;;;14.82;53.91
78800;BME280;68148;55.328;86.106;2023-06-24T01:51:41;98956.22;;;14.99;54.24
78800;BME280;68148;55.328;86.106;2023-06-24T01:54:10;98959.09;;;15.09;53.41
78800;BME280;68148;55.328;86.106;2023-06-24T01:56:37;98955.47;;;15.15;51.67
78800;BME280;68148;55.328;86.106;2023-06-24T01:59:05;98959.19;;;15.14;51.60
78800;BME280;68148;55.328;86.106;2023-06-24T02:01:33;98958.84;;;15.11;52.14
78800;BME280;68148;55.328;86.106;2023-06-24T02:04:01;98956.28;;;15.16;52.26
78800;BME280;68148;55.328;86.106;2023-06-24T02:06:29;98964.09;;;15.34;52.58
78800;BME280;68148;55.328;86.106;2023-06-24T02:08:57;98963.06;;;15.64;51.47
78800;BME280;68148;55.328;86.106;2023-06-24T02:11:23;98950.69;;;15.69;51.00
78800;BME280;68148;55.328;86.106;2023-06-24T02:13:50;98939.84;;;15.88;50.83
78800;BME280;68148;55.328;86.106;2023-06-24T02:16:17;98941.25;;;16.07;50.32
78800;BME280;68148;55.328;86.106;2023-06-24T02:18:45;98937.03;;;16.11;49.73
78800;BME280;68148;55.328;86.106;2023-06-24T02:21:11;98944.72;;;16.24;47.99
78800;BME280;68148;55.328;86.106;2023-06-24T02:23:38;98940.75;;;16.10;48.68
78800;BME280;68148;55.328;86.106;2023-06-24T02:26:07;98942.69;;;16.15;49.05
78800;BME280;68148;55.328;86.106;2023-06-24T02:28:34;98945.97;;;16.05;48.47
78800;BME280;68148;55.328;86.106;2023-06-24T02:31:01;98933.25;;;16.07;48.86
78800;BME280;68148;55.328;86.106;2023-06-24T02:33:27;98934.22;;;16.18;48.14
78800;BME280;68148;55.328;86.106;2023-06-24T02:35:53;98939.13;;;16.43;47.23
78800;BME280;68148;55.328;86.106;2023-06-24T02:38:20;98925.88;;;16.48;46.51
78800;BME280;68148;55.328;86.106;2023-06-24T02:40:45;98924.72;;;16.77;46.36
78800;BME280;68148;55.328;86.106;2023-06-24T02:43:11;98927.53;;;16.71;46.94
78800;BME280;68148;55.328;86.106;2023-06-24T02:45:39;98936.38;;;16.55;47.90
78800;BME280;68148;55.328;86.106;2023-06-24T02:48:06;98916.78;;;16.66;47.74
78800;BME280;68148;55.328;86.106;2023-06-24T02:50:35;98916.13;;;16.92;46.78
78800;BME280;68148;55.328;86.106;2023-06-24T02:53:02;98904.28;;;17.05;46.29
78800;BME280;68148;55.328;86.106;2023-06-24T02:55:29;98895.13;;;16.96;45.10
78800;BME280;68148;55.328;86.106;2023-06-24T02:57:55;98903.84;;;16.91;45.43
78800;BME280;68148;55.328;86.106;2023-06-24T03:00:22;98891.50;;;17.07;44.84
78800;BME280;68148;55.328;86.106;2023-06-24T03:02:48;98899.13;;;17.20;43.58
78800;BME280;68148;55.328;86.106;2023-06-24T03:05:16;98894.78;;;17.14;44.25
78800;BME280;68148;55.328;86.106;2023-06-24T03:07:42;98886.75;;;17.09;44.71
78800;BME280;68148;55.328;86.106;2023-06-24T03:10:08;98887.91;;;17.18;42.50
78800;BME280;68148;55.328;86.106;2023-06-24T03:12:35;98876.84;;;17.05;43.89
78800;BME280;68148;55.328;86.106;2023-06-24T03:15:01;98869.91;;;17.31;43.86
78800;BME280;68148;55.328;86.106;2023-06-24T03:17:27;98880.88;;;17.12;42.75
78800;BME280;68148;55.328;86.106;2023-06-24T03:19:53;98869.50;;;16.73;44.05
78800;BME280;68148;55.328;86.106;2023-06-24T03:22:19;98868.06;;;16.87;44.43
78800;BME280;68148;55.328;86.106;2023-06-24T03:24:44;98878.50;;;16.89;43.54
78800;BME280;68148;55.328;86.106;2023-06-24T03:27:10;98869.41;;;16.68;43.95
78800;BME280;68148;55.328;86.106;2023-06-24T03:29:36;98867.50;;;16.63;44.73
78800;BME280;68148;55.328;86.106;2023-06-24T03:32:02;98861.16;;;16.69;44.09
78800;BME280;68148;55.328;86.106;2023-06-24T03:34:28;98852.81;;;16.61;44.55
78800;BME280;68148;55.328;86.106;2023-06-24T03:36:54;98853.91;;;16.65;45.38
78800;BME280;68148;55.328;86.106;2023-06-24T03:39:21;98857.91;;;16.62;46.26
78800;BME280;68148;55.328;86.106;2023-06-24T03:41:47;98850.78;;;16.68;46.07
78800;BME280;68148;55.328;86.106;2023-06-24T03:44:13;98851.50;;;16.63;46.56
78800;BME280;68148;55.328;86.106;2023-06-24T03:46:39;98843.09;;;16.93;45.73
78800;BME280;68148;55.328;86.106;2023-06-24T03:49:04;98845.56;;;17.22;43.80
78800;BME280;68148;55.328;86.106;2023-06-24T03:51:30;98834.59;;;17.18;44.25
78800;BME280;68148;55.328;86.106;2023-06-24T03:53:56;98821.16;;;17.35;44.20
78800;BME280;68148;55.328;86.106;2023-06-24T03:56:22;98827.75;;;17.27;43.86
78800;BME280;68148;55.328;86.106;2023-06-24T03:58:49;98829.13;;;17.08;44.94
78800;BME280;68148;55.328;86.106;2023-06-24T04:01:14;98837.84;;;16.98;44.94
78800;BME280;68148;55.328;86.106;2023-06-24T04:03:40;98827.84;;;17.11;44.53
78800;BME280;68148;55.328;86.106;2023-06-24T04:06:09;98819.44;;;17.24;43.80
78800;BME280;68148;55.328;86.106;2023-06-24T04:08:35;98825.44;;;17.09;43.18
78800;BME280;68148;55.328;86.106;2023-06-24T04:11:01;98817.22;;;17.16;43.74
78800;BME280;68148;55.328;86.106;2023-06-24T04:13:26;98802.31;;;17.20;43.71
78800;BME280;68148;55.328;86.106;2023-06-24T04:15:52;98805.25;;;17.18;44.05
78800;BME280;68148;55.328;86.106;2023-06-24T04:18:19;98789.91;;;17.31;43.20
78800;BME280;68148;55.328;86.106;2023-06-24T04:20:45;98792.44;;;17.47;42.56
78800;BME280;68148;55.328;86.106;2023-06-24T04:23:12;98792.78;;;17.56;42.41
78800;BME280;68148;55.328;86.106;2023-06-24T04:25:39;98794.44;;;17.62;42.56
78800;BME280;68148;55.328;86.106;2023-06-24T04:28:05;98795.09;;;17.74;42.18
78800;BME280;68148;55.328;86.106;2023-06-24T04:30:34;98784.66;;;17.73;42.58
78800;BME280;68148;55.328;86.106;2023-06-24T04:33:00;98799.94;;;17.83;41.99
78800;BME280;68148;55.328;86.106;2023-06-24T04:35:26;98793.69;;;17.72;42.63
78800;BME280;68148;55.328;86.106;2023-06-24T04:37:52;98793.91;;;17.97;42.18
78800;BME280;68148;55.328;86.106;2023-06-24T04:40:19;98802.19;;;17.96;42.53
78800;BME280;68148;55.328;86.106;2023-06-24T04:42:48;98796.81;;;17.91;42.49
78800;BME280;68148;55.328;86.106;2023-06-24T04:45:14;98790.69;;;17.63;43.11
78800;BME280;68148;55.328;86.106;2023-06-24T04:47:40;98783.72;;;17.57;43.24
78800;BME280;68148;55.328;86.106;2023-06-24T04:50:07;98784.13;;;17.39;43.61
78800;BME280;68148;55.328;86.106;2023-06-24T04:52:33;98787.47;;;17.56;42.98
78800;BME280;68148;55.328;86.106;2023-06-24T04:54:59;98767.91;;;17.50;43.14
78800;BME280;68148;55.328;86.106;2023-06-24T04:57:30;98781.91;;;17.68;42.57
78800;BME280;68148;55.328;86.106;2023-06-24T04:59:57;98777.88;;;17.60;42.80
78800;BME280;68148;55.328;86.106;2023-06-24T05:02:23;98780.47;;;17.50;43.07
78800;BME280;68148;55.328;86.106;2023-06-24T05:04:49;98777.31;;;17.58;42.92
78800;BME280;68148;55.328;86.106;2023-06-24T05:07:15;98777.06;;;17.60;42.73
78800;BME280;68148;55.328;86.106;2023-06-24T05:09:41;98781.59;;;17.59;42.39
78800;BME280;68148;55.328;86.106;2023-06-24T05:12:08;98777.41;;;17.36;42.83
78800;BME280;68148;55.328;86.106;2023-06-24T05:14:34;98783.00;;;17.35;43.32
78800;BME280;68148;55.328;86.106;2023-06-24T05:17:01;98776.31;;;17.32;43.11
78800;BME280;68148;55.328;86.106;2023-06-24T05:19:26;98770.94;;;17.27;43.18
78800;BME280;68148;55.328;86.106;2023-06-24T05:21:53;98779.16;;;17.25;42.53
78800;BME280;68148;55.328;86.106;2023-06-24T05:24:18;98775.34;;;17.16;42.56
78800;BME280;68148;55.328;86.106;2023-06-24T05:26:47;98771.59;;;17.12;42.34
78800;BME280;68148;55.328;86.106;2023-06-24T05:29:14;98772.97;;;17.15;41.86
78800;BME280;68148;55.328;86.106;2023-06-24T05:31:40;98771.53;;;17.07;41.96
78800;BME280;68148;55.328;86.106;2023-06-24T05:34:06;98773.91;;;17.03;42.21
78800;BME280;68148;55.328;86.106;2023-06-24T05:36:32;98764.25;;;16.97;42.33
78800;BME280;68148;55.328;86.106;2023-06-24T05:38:58;98768.38;;;17.10;41.74
78800;BME280;68148;55.328;86.106;2023-06-24T05:41:24;98775.59;;;17.10;42.00
78800;BME280;68148;55.328;86.106;2023-06-24T05:44:01;98784.16;;;16.90;42.78
78800;BME280;68148;55.328;86.106;2023-06-24T05:46:27;98791.41;;;16.94;43.19
78800;BME280;68148;55.328;86.106;2023-06-24T05:48:53;98795.94;;;16.94;43.82
78800;BME280;68148;55.328;86.106;2023-06-24T05:51:19;98800.41;;;16.88;44.40
78800;BME280;68148;55.328;86.106;2023-06-24T05:53:45;98811.94;;;16.94;44.49
78800;BME280;68148;55.328;86.106;2023-06-24T05:56:11;98810.31;;;16.93;44.93
78800;BME280;68148;55.328;86.106;2023-06-24T05:58:37;98808.59;;;16.82;45.10
78800;BME280;68148;55.328;86.106;2023-06-24T06:01:03;98814.34;;;16.73;46.62
78800;BME280;68148;55.328;86.106;2023-06-24T06:03:29;98810.00;;;16.67;47.80
78800;BME280;68148;55.328;86.106;2023-06-24T06:05:54;98797.38;;;16.58;48.41
78800;BME280;68148;55.328;86.106;2023-06-24T06:08:20;98811.94;;;16.50;49.06
78800;BME280;68148;55.328;86.106;2023-06-24T06:10:46;98810.13;;;16.34;50.30
78800;BME280;68148;55.328;86.106;2023-06-24T06:13:12;98818.88;;;16.12;50.16
78800;BME280;68148;55.328;86.106;2023-06-24T06:15:38;98809.69;;;16.03;52.05
78800;BME280;68148;55.328;86.106;2023-06-24T06:18:04;98813.03;;;15.93;53.02
78800;BME280;68148;55.328;86.106;2023-06-24T06:20:30;98803.66;;;15.91;53.67
78800;BME280;68148;55.328;86.106;2023-06-24T06:22:56;98798.66;;;15.94;53.94
78800;BME280;68148;55.328;86.106;2023-06-24T06:25:22;98792.34;;;16.00;53.91
78800;BME280;68148;55.328;86.106;2023-06-24T06:27:48;98793.00;;;16.08;55.23
78800;BME280;68148;55.328;86.106;2023-06-24T06:30:14;98792.19;;;16.07;55.34
78800;BME280;68148;55.328;86.106;2023-06-24T06:32:40;98801.06;;;15.96;54.65
78800;BME280;68148;55.328;86.106;2023-06-24T06:35:06;98809.31;;;15.94;55.88
78800;BME280;68148;55.328;86.106;2023-06-24T06:37:33;98825.44;;;15.88;54.55
78800;BME280;68148;55.328;86.106;2023-06-24T06:39:59;98825.44;;;15.88;56.33
78800;BME280;68148;55.328;86.106;2023-06-24T06:42:25;98826.16;;;15.83;55.99
78800;BME280;68148;55.328;86.106;2023-06-24T06:44:51;98830.00;;;15.75;55.06
78800;BME280;68148;55.328;86.106;2023-06-24T06:47:17;98818.03;;;15.73;57.28
78800;BME280;68148;55.328;86.106;2023-06-24T06:49:42;98812.44;;;15.74;56.85
78800;BME280;68148;55.328;86.106;2023-06-24T06:52:08;98807.84;;;15.70;57.61
78800;BME280;68148;55.328;86.106;2023-06-24T06:54:34;98803.94;;;15.72;58.76
78800;BME280;68148;55.328;86.106;2023-06-24T06:57:03;98816.00;;;15.63;59.78
78800;BME280;68148;55.328;86.106;2023-06-24T06:59:32;98806.22;;;15.52;59.82
78800;BME280;68148;55.328;86.106;2023-06-24T07:01:58;98803.16;;;15.43;59.60
78800;BME280;68148;55.328;86.106;2023-06-24T07:04:24;98807.00;;;15.36;61.02
78800;BME280;68148;55.328;86.106;2023-06-24T07:06:50;98792.81;;;15.30;61.15
78800;BME280;68148;55.328;86.106;2023-06-24T07:09:16;98809.97;;;15.22;61.65
78800;BME280;68148;55.328;86.106;2023-06-24T07:11:42;98798.19;;;15.18;62.30
78800;BME280;68148;55.328;86.106;2023-06-24T07:14:08;98803.84;;;15.22;62.23
78800;BME280;68148;55.328;86.106;2023-06-24T07:16:34;98792.81;;;15.30;62.13
78800;BME280;68148;55.328;86.106;2023-06-24T07:19:00;98800.94;;;15.23;63.00
78800;BME280;68148;55.328;86.106;2023-06-24T07:21:26;98801.03;;;15.28;63.07
78800;BME280;68148;55.328;86.106;2023-06-24T07:23:51;98801.66;;;15.19;63.48
78800;BME280;68148;55.328;86.106;2023-06-24T07:26:17;98814.31;;;15.12;63.34
78800;BME280;68148;55.328;86.106;2023-06-24T07:28:43;98813.47;;;15.11;64.66
78800;BME280;68148;55.328;86.106;2023-06-24T07:31:09;98805.28;;;15.13;65.02
78800;BME280;68148;55.328;86.106;2023-06-24T07:33:34;98815.41;;;15.16;64.73
78800;BME280;68148;55.328;86.106;2023-06-24T07:36:00;98797.53;;;15.11;65.19
78800;BME280;68148;55.328;86.106;2023-06-24T07:38:28;98807.03;;;15.07;66.03
78800;BME280;68148;55.328;86.106;2023-06-24T07:40:54;98801.91;;;15.17;66.33
78800;BME280;68148;55.328;86.106;2023-06-24T07:43:20;98807.31;;;15.22;66.77
78800;BME280;68148;55.328;86.106;2023-06-24T07:45:45;98810.13;;;15.33;66.16
78800;BME280;68148;55.328;86.106;2023-06-24T07:48:11;98819.16;;;15.32;67.45
78800;BME280;68148;55.328;86.106;2023-06-24T07:50:40;98822.00;;;15.25;66.43
78800;BME280;68148;55.328;86.106;2023-06-24T07:53:06;98825.25;;;15.15;67.34
78800;BME280;68148;55.328;86.106;2023-06-24T07:55:32;98832.91;;;15.12;66.60
78800;BME280;68148;55.328;86.106;2023-06-24T07:57:58;98831.09;;;15.00;67.30
78800;BME280;68148;55.328;86.106;2023-06-24T08:00:24;98836.44;;;14.89;67.49
78800;BME280;68148;55.328;86.106;2023-06-24T08:02:50;98832.66;;;14.85;67.72
78800;BME280;68148;55.328;86.106;2023-06-24T08:05:15;98839.09;;;14.89;68.50
78800;BME280;68148;55.328;86.106;2023-06-24T08:07:41;98829.53;;;14.88;68.14
78800;BME280;68148;55.328;86.106;2023-06-24T08:10:07;98828.38;;;14.84;67.38
78800;BME280;68148;55.328;86.106;2023-06-24T08:12:33;98833.09;;;14.82;67.83
78800;BME280;68148;55.328;86.106;2023-06-24T08:14:59;98824.41;;;14.69;69.47
78800;BME280;68148;55.328;86.106;2023-06-24T08:17:24;98826.28;;;14.86;69.93
78800;BME280;68148;55.328;86.106;2023-06-24T08:19:50;98815.84;;;14.67;69.91
78800;BME280;68148;55.328;86.106;2023-06-24T08:22:16;98819.63;;;14.71;69.94
78800;BME280;68148;55.328;86.106;2023-06-24T08:24:42;98821.50;;;14.71;70.95
78800;BME280;68148;55.328;86.106;2023-06-24T08:27:07;98810.44;;;14.62;71.45
78800;BME280;68148;55.328;86.106;2023-06-24T08:29:33;98815.38;;;14.70;70.87
78800;BME280;68148;55.328;86.106;2023-06-24T08:31:59;98815.84;;;14.67;71.83
78800;BME280;68148;55.328;86.106;2023-06-24T08:34:24;98820.00;;;14.63;71.56
78800;BME280;68148;55.328;86.106;2023-06-24T08:36:51;98813.44;;;14.66;71.49
78800;BME280;68148;55.328;86.106;2023-06-24T08:39:30;98811.69;;;14.60;72.62
78800;BME280;68148;55.328;86.106;2023-06-24T08:41:56;98815.09;;;14.32;72.48
78800;BME280;68148;55.328;86.106;2023-06-24T08:44:22;98817.38;;;14.28;73.20
78800;BME280;68148;55.328;86.106;2023-06-24T08:46:48;98826.28;;;14.22;74.17
78800;BME280;68148;55.328;86.106;2023-06-24T08:51:51;98817.75;;;14.08;74.03
78800;BME280;68148;55.328;86.106;2023-06-24T08:54:19;98827.44;;;13.91;74.77
78800;BME280;68148;55.328;86.106;2023-06-24T08:56:45;98828.03;;;13.93;74.76
78800;BME280;68148;55.328;86.106;2023-06-24T08:59:11;98823.75;;;13.92;74.99
78800;BME280;68148;55.328;86.106;2023-06-24T09:01:37;98824.56;;;13.92;75.27
78800;BME280;68148;55.328;86.106;2023-06-24T09:04:03;98816.94;;;13.96;76.13
78800;BME280;68148;55.328;86.106;2023-06-24T09:06:31;98818.22;;;13.93;76.25
78800;BME280;68148;55.328;86.106;2023-06-24T09:08:57;98830.56;;;13.88;75.99
78800;BME280;68148;55.328;86.106;2023-06-24T09:11:27;98833.44;;;13.86;75.91
78800;BME280;68148;55.328;86.106;2023-06-24T09:14:00;98840.00;;;13.84;76.74
78800;BME280;68148;55.328;86.106;2023-06-24T09:16:26;98844.84;;;13.87;76.61
78800;BME280;68148;55.328;86.106;2023-06-24T09:18:53;98841.03;;;13.83;76.81
78800;BME280;68148;55.328;86.106;2023-06-24T09:23:53;98838.38;;;13.83;76.50
78800;BME280;68148;55.328;86.106;2023-06-24T09:26:19;98852.78;;;13.87;76.46
78800;BME280;68148;55.328;86.106;2023-06-24T09:28:48;98846.81;;;13.80;77.06
78800;BME280;68148;55.328;86.106;2023-06-24T09:31:14;98846.22;;;13.77;77.35
78800;BME280;68148;55.328;86.106;2023-06-24T09:33:40;98850.47;;;13.78;77.80
78800;BME280;68148;55.328;86.106;2023-06-24T09:36:06;98850.25;;;13.68;77.21
78800;BME280;68148;55.328;86.106;2023-06-24T09:38:37;98839.19;;;13.71;78.24
78800;BME280;68148;55.328;86.106;2023-06-24T09:41:04;98853.81;;;13.74;78.39
78800;BME280;68148;55.328;86.106;2023-06-24T09:43:30;98852.13;;;13.80;78.06
78800;BME280;68148;55.328;86.106;2023-06-24T09:45:57;98851.63;;;13.71;77.27
78800;BME280;68148;55.328;86.106;2023-06-24T09:48:23;98854.63;;;13.74;77.73
78800;BME280;68148;55.328;86.106;2023-06-24T09:50:49;98846.81;;;13.80;77.97
78800;BME280;68148;55.328;86.106;2023-06-24T09:53:15;98853.03;;;13.85;77.29
78800;BME280;68148;55.328;86.106;2023-06-24T09:55:42;98853.97;;;13.79;76.54
78800;BME280;68148;55.328;86.106;2023-06-24T09:58:08;98842.31;;;13.80;77.34
78800;BME280;68148;55.328;86.106;2023-06-24T10:00:35;98852.22;;;13.85;77.66
78800;BME280;68148;55.328;86.106;2023-06-24T10:03:02;98855.25;;;13.88;77.55
78800;BME280;68148;55.328;86.106;2023-06-24T10:05:28;98853.38;;;13.89;77.35
78800;BME280;68148;55.328;86.106;2023-06-24T10:07:54;98852.59;;;13.88;77.11
78800;BME280;68148;55.328;86.106;2023-06-24T10:10:20;98851.63;;;13.83;77.25
78800;BME280;68148;55.328;86.106;2023-06-24T10:12:46;98854.97;;;13.78;77.49
78800;BME280;68148;55.328;86.106;2023-06-24T10:15:12;98859.13;;;13.74;77.11
78800;BME280;68148;55.328;86.106;2023-06-24T10:17:38;98860.06;;;13.80;77.68
78800;BME280;68148;55.328;86.106;2023-06-24T10:20:05;98867.09;;;13.86;77.40
78800;BME280;68148;55.328;86.106;2023-06-24T10:22:31;98863.06;;;13.95;75.86
78800;BME280;68148;55.328;86.106;2023-06-24T10:25:00;98867.81;;;13.93;76.21
78800;BME280;68148;55.328;86.106;2023-06-24T10:27:27;98876.66;;;13.87;76.93
78800;BME280;68148;55.328;86.106;2023-06-24T10:29:54;98871.34;;;13.87;76.93
78800;BME280;68148;55.328;86.106;2023-06-24T10:32:22;98868.25;;;13.90;75.97
78800;BME280;68148;55.328;86.106;2023-06-24T10:34:55;98862.97;;;13.90;76.87
78800;BME280;68148;55.328;86.106;2023-06-24T10:39:48;98888.47;;;14.02;76.12
78800;BME280;68148;55.328;86.106;2023-06-24T10:44:57;98880.59;;;13.96;76.64
78800;BME280;68148;55.328;86.106;2023-06-24T10:47:26;98885.56;;;13.92;77.39
78800;BME280;68148;55.328;86.106;2023-06-24T10:49:51;98891.56;;;13.99;77.03
78800;BME280;68148;55.328;86.106;2023-06-24T10:52:21;98882.00;;;13.98;76.85
78800;BME280;68148;55.328;86.106;2023-06-24T10:54:48;98894.13;;;14.06;77.28
78800;BME280;68148;55.328;86.106;2023-06-24T10:57:15;98891.34;;;14.01;77.44
78800;BME280;68148;55.328;86.106;2023-06-24T10:59:41;98895.28;;;14.10;76.72
78800;BME280;68148;55.328;86.106;2023-06-24T11:02:08;98901.72;;;14.02;77.38
78800;BME280;68148;55.328;86.106;2023-06-24T11:05:08;98902.28;;;13.93;77.38
78800;BME280;68148;55.328;86.106;2023-06-24T11:07:34;98911.50;;;13.90;77.23
78800;BME280;68148;55.328;86.106;2023-06-24T11:12:31;98899.69;;;13.74;77.65
78800;BME280;68148;55.328;86.106;2023-06-24T11:14:58;98908.50;;;13.75;76.99
78800;BME280;68148;55.328;86.106;2023-06-24T11:17:24;98915.03;;;13.72;78.08
78800;BME280;68148;55.328;86.106;2023-06-24T11:19:55;98918.00;;;13.64;78.77
78800;BME280;68148;55.328;86.106;2023-06-24T11:22:22;98922.59;;;13.57;79.37
78800;BME280;68148;55.328;86.106;2023-06-24T11:24:49;98933.13;;;13.64;79.94
78800;BME280;68148;55.328;86.106;2023-06-24T11:27:14;98922.59;;;13.57;80.62
78800;BME280;68148;55.328;86.106;2023-06-24T11:29:40;98921.28;;;13.48;80.74
78800;BME280;68148;55.328;86.106;2023-06-24T11:32:09;98921.28;;;13.36;81.11
78800;BME280;68148;55.328;86.106;2023-06-24T11:34:36;98915.97;;;13.36;80.94
78800;BME280;68148;55.328;86.106;2023-06-24T11:37:12;98925.72;;;13.36;80.81
78800;BME280;68148;55.328;86.106;2023-06-24T11:39:39;98934.03;;;13.27;81.54
78800;BME280;68148;55.328;86.106;2023-06-24T11:42:08;98939.78;;;13.18;80.04
78800;BME280;68148;55.328;86.106;2023-06-24T11:44:35;98938.75;;;13.19;79.37
78800;BME280;68148;55.328;86.106;2023-06-24T11:47:07;98939.66;;;13.13;79.69
78800;BME280;68148;55.328;86.106;2023-06-24T11:49:50;98938.72;;;13.07;80.33
78800;BME280;68148;55.328;86.106;2023-06-24T11:52:17;98945.03;;;13.06;81.66
78800;BME280;68148;55.328;86.106;2023-06-24T11:54:43;98937.00;;;13.13;81.35
78800;BME280;68148;55.328;86.106;2023-06-24T11:57:09;98939.00;;;13.17;82.06
78800;BME280;68148;55.328;86.106;2023-06-24T11:59:35;98944.00;;;13.07;82.00
78800;BME280;68148;55.328;86.106;2023-06-24T12:02:01;98962.41;;;13.02;81.67
78800;BME280;68148;55.328;86.106;2023-06-24T12:04:28;98954.28;;;12.97;81.33
78800;BME280;68148;55.328;86.106;2023-06-24T12:06:56;98967.41;;;12.92;80.96
78800;BME280;68148;55.328;86.106;2023-06-24T12:09:22;98960.47;;;12.91;81.71
78800;BME280;68148;55.328;86.106;2023-06-24T12:11:48;98961.66;;;12.95;81.08
78800;BME280;68148;55.328;86.106;2023-06-24T12:14:14;98954.75;;;12.94;80.80
78800;BME280;68148;55.328;86.106;2023-06-24T12:16:40;98956.88;;;12.85;80.78
78800;BME280;68148;55.328;86.106;2023-06-24T12:19:07;98953.19;;;12.86;80.91
78800;BME280;68148;55.328;86.106;2023-06-24T12:21:33;98965.19;;;12.89;82.64
78800;BME280;68148;55.328;86.106;2023-06-24T12:23:59;98960.53;;;12.84;82.94
78800;BME280;68148;55.328;86.106;2023-06-24T12:26:25;98965.03;;;12.84;83.49
78800;BME280;68148;55.328;86.106;2023-06-24T12:28:54;98965.56;;;12.92;82.79
78800;BME280;68148;55.328;86.106;2023-06-24T12:31:20;98975.03;;;12.82;82.54
78800;BME280;68148;55.328;86.106;2023-06-24T12:33:46;98969.88;;;12.68;82.71
78800;BME280;68148;55.328;86.106;2023-06-24T12:36:19;98973.09;;;12.70;81.95
78800;BME280;68148;55.328;86.106;2023-06-24T12:38:45;98974.19;;;12.63;82.03
78800;BME280;68148;55.328;86.106;2023-06-24T12:41:10;98975.06;;;12.57;81.25
78800;BME280;68148;55.328;86.106;2023-06-24T12:43:36;98978.47;;;12.64;81.01
78800;BME280;68148;55.328;86.106;2023-06-24T12:46:02;98982.38;;;12.61;81.00
78800;BME280;68148;55.328;86.106;2023-06-24T12:48:28;98990.72;;;12.58;80.82
78800;BME280;68148;55.328;86.106;2023-06-24T12:50:53;98993.34;;;12.65;80.59
78800;BME280;68148;55.328;86.106;2023-06-24T12:53:20;98985.31;;;12.71;79.90
78800;BME280;68148;55.328;86.106;2023-06-24T12:55:46;98993.47;;;12.70;78.79
78800;BME280;68148;55.328;86.106;2023-06-24T12:58:14;99010.03;;;12.65;78.79
78800;BME280;68148;55.328;86.106;2023-06-24T13:00:40;98996.78;;;12.65;78.48
78800;BME280;68148;55.328;86.106;2023-06-24T13:03:06;98989.22;;;12.69;79.18
78800;BME280;68148;55.328;86.106;2023-06-24T13:05:32;99000.00;;;12.67;78.42
78800;BME280;68148;55.328;86.106;2023-06-24T13:07:58;98988.78;;;12.72;78.45
78800;BME280;68148;55.328;86.106;2023-06-24T13:10:23;99000.78;;;12.74;77.65
78800;BME280;68148;55.328;86.106;2023-06-24T13:12:49;98999.72;;;12.75;76.93
78800;BME280;68148;55.328;86.106;2023-06-24T13:15:18;99003.25;;;12.69;76.04